METAR Data
IDs: Format: Raw Decoded Include TAF

Data at: 1736 UTC 16 Oct 2021

KOSA 161715Z AUTO 02008KT 10SM CLR 21/01 A3035 RMK AO2 T02080007
KOSA 161655Z AUTO 01007KT 10SM CLR 21/01 A3036 RMK AO2 T02060011
KOSA 161635Z AUTO 01008KT 10SM CLR 20/02 A3036 RMK AO2 T02010024
KOSA 161615Z AUTO 36011KT 10SM CLR 20/02 A3036 RMK AO2 T01950017
KOSA 161555Z AUTO 03006KT 10SM CLR 19/04 A3036 RMK AO2 T01890038
KOSA 161535Z AUTO 01006KT 10SM CLR 18/05 A3036 RMK AO2 T01820051
KOSA 161515Z AUTO 01005KT 10SM CLR 18/06 A3036 RMK AO2 T01750059
KOSA 161455Z AUTO 35007KT 10SM CLR 16/07 A3036 RMK AO2 T01650068
KOSA 161435Z AUTO 34007KT 10SM CLR 15/08 A3035 RMK AO2 T01530078
KOSA 161415Z AUTO 34007KT 10SM CLR 14/09 A3035 RMK AO2 T01380085
KOSA 161355Z AUTO 34007KT 10SM CLR 13/09 A3034 RMK AO2 T01260088
KOSA 161335Z AUTO 34006KT 10SM CLR 11/09 A3034 RMK AO2 T01150088
KOSA 161315Z AUTO 34007KT 10SM CLR 11/08 A3033 RMK AO2 T01060083
KOSA 161255Z AUTO 32005KT 10SM CLR 10/08 A3033 RMK AO2 T00980079
KOSA 161235Z AUTO 29005KT 10SM CLR 10/08 A3032 RMK AO2 T00960077
KOSA 161215Z AUTO 32005KT 10SM CLR 09/07 A3032 RMK AO2 T00950073
KOSA 161155Z AUTO 31005KT 10SM CLR 10/07 A3031 RMK AO2 T00960074 10135 20094
KOSA 161135Z AUTO 32003KT 10SM CLR 10/08 A3030 RMK AO2 T00970075
KOSA 161115Z AUTO 31004KT 10SM CLR 10/08 A3029 RMK AO2 T01010077
KOSA 161055Z AUTO 32005KT 10SM CLR 10/08 A3028 RMK AO2 T01030077
KOSA 161035Z AUTO 32004KT 10SM CLR 10/07 A3028 RMK AO2 T00970073
KOSA 161015Z AUTO 32004KT 10SM CLR 10/07 A3028 RMK AO2 T01010075
KOSA 160955Z AUTO 32004KT 10SM CLR 11/07 A3028 RMK AO2 T01060075
KOSA 160935Z AUTO 32004KT 10SM CLR 11/07 A3027 RMK AO2 T01110075
KOSA 160915Z AUTO 31004KT 10SM CLR 11/08 A3027 RMK AO2 T01070075
KOSA 160855Z AUTO 32005KT 10SM CLR 11/08 A3026 RMK AO2 T01050077
KOSA 160835Z AUTO 33006KT 10SM CLR 11/08 A3026 RMK AO2 T01050077
KOSA 160815Z AUTO 32006KT 10SM CLR 11/08 A3026 RMK AO2 T01130079
KOSA 160755Z AUTO 31006KT 10SM CLR 12/08 A3026 RMK AO2 T01180079
KOSA 160735Z AUTO 31004KT 10SM CLR 12/08 A3026 RMK AO2 T01200077
KOSA 160715Z AUTO 32004KT 10SM CLR 12/07 A3026 RMK AO2 T01200075
KOSA 160655Z AUTO 32006KT 10SM CLR 13/08 A3025 RMK AO2 T01280075
KOSA 160635Z AUTO 31006KT 10SM CLR 13/07 A3025 RMK AO2 T01260072
KOSA 160615Z AUTO 34007KT 10SM CLR 13/07 A3024 RMK AO2 T01280069
KOSA 160555Z AUTO 35006KT 10SM CLR 14/07 A3024 RMK AO2 T01360070 10208 20134
KOSA 160535Z AUTO 35006KT 10SM CLR 14/07 A3023 RMK AO2 T01370072
KOSA 160515Z AUTO 34008KT 10SM CLR 15/08 A3022 RMK AO2 T01460075
KOSA 160455Z AUTO 34009KT 10SM CLR 15/08 A3021 RMK AO2 T01460076
KOSA 160435Z AUTO 34008KT 10SM CLR 15/08 A3021 RMK AO2 T01450078
KOSA 160415Z AUTO 34007KT 10SM CLR 14/08 A3020 RMK AO2 T01440082
KOSA 160355Z AUTO 34006KT 10SM CLR 16/08 A3019 RMK AO2 T01550081
KOSA 160335Z AUTO 36007KT 10SM CLR 16/08 A3019 RMK AO2 T01590082
KOSA 160315Z AUTO 34009KT 10SM CLR 16/08 A3018 RMK AO2 T01570085
KOSA 160255Z AUTO 34009KT 10SM CLR 16/09 A3017 RMK AO2 T01620087
KOSA 160235Z AUTO 34007KT 10SM CLR 16/09 A3016 RMK AO2 T01590086
KOSA 160215Z AUTO 35007KT 10SM CLR 17/09 A3016 RMK AO2 T01680085
KOSA 160155Z AUTO 35008KT 10SM CLR 17/09 A3014 RMK AO2 T01740085
KOSA 160135Z AUTO 33011KT 10SM CLR 18/09 A3013 RMK AO2 T01810086
KOSA 160115Z AUTO 33011G17KT 10SM CLR 19/09 A3012 RMK AO2 T01880087
KOSA 160055Z AUTO 33013G20KT 10SM CLR 19/09 A3011 RMK AO2 T01940090
KOSA 160035Z AUTO 34013G20KT 10SM CLR 20/10 A3009 RMK AO2 T01980099
KOSA 160015Z AUTO 32017G26KT 10SM CLR 20/11 A3008 RMK AO2 T02050108
KOSA 152355Z AUTO 32014KT 10SM CLR 21/12 A3006 RMK AO2 T02080121 10295 20207 402950203
KOSA 152335Z AUTO 33015KT 10SM CLR 21/13 A3005 RMK AO2 T02140128
KOSA 152315Z AUTO 32015G24KT 10SM CLR 22/13 A3004 RMK AO2 T02200135
KOSA 152255Z AUTO 32014G22KT 10SM CLR 22/14 A3003 RMK AO2 T02240140
KOSA 152235Z AUTO 32017G20KT 10SM CLR 23/15 A3002 RMK AO2 T02280146
KOSA 152215Z AUTO 32019G24KT 10SM SCT032 23/15 A3001 RMK AO2 T02320149
KOSA 152155Z AUTO 32021G25KT 10SM SCT030 24/16 A2999 RMK AO2 T02400163
KOSA 152135Z AUTO 32019G28KT 10SM SCT030 SCT036 BKN043 24/17 A2999 RMK AO2 T02400168
KOSA 152115Z AUTO 32021G26KT 10SM BKN030 BKN038 OVC050 25/17 A2998 RMK AO2 T02460173
KOSA 152055Z AUTO 32017G23KT 10SM BKN030 BKN043 OVC055 27/18 A2997 RMK AO2 T02660182
KOSA 152035Z AUTO 32017G24KT 10SM BKN030 OVC040 25/18 A2996 RMK AO2 T02530184
KOSA 152015Z AUTO 31017G25KT 10SM SCT028 BKN042 OVC050 26/19 A2994 RMK AO2 T02590190
KOSA 151955Z AUTO 30019G22KT 10SM SCT028 BKN036 OVC050 27/20 A2993 RMK AO2 T02670199
KOSA 151935Z AUTO 27010KT 10SM BKN036 BKN047 28/20 A2992 RMK AO2 T02820199
KOSA 151915Z AUTO 24011KT 10SM SCT030 BKN036 OVC047 28/20 A2992 RMK AO2 T02750201
KOSA 151855Z AUTO 24011KT 10SM SCT030 BKN039 28/20 A2993 RMK AO2 T02780202
KOSA 151835Z AUTO 26010KT 10SM SCT021 SCT025 OVC038 26/21 A2994 RMK AO2 T02630210
KOSA 151815Z AUTO 25013G19KT 10SM BKN021 OVC027 25/21 A2994 RMK AO2 T02530211
KOSA 151755Z AUTO 27012KT 10SM SCT021 BKN027 OVC033 26/21 A2994 RMK AO2 T02630214 10282 20222
KOSA 151735Z AUTO 25012KT 10SM SCT021 BKN027 OVC033 27/22 A2994 RMK AO2 T02650217
KOSA 151715Z AUTO 25012G16KT 10SM BKN025 BKN031 BKN042 27/22 A2993 RMK AO2 T02720215
KOSA 151655Z AUTO 22008KT 10SM BKN029 OVC034 27/22 A2993 RMK AO2 T02680215
KOSA 151635Z AUTO 23010KT 10SM BKN029 BKN034 BKN048 27/21 A2993 RMK AO2 T02660213
KOSA 151615Z AUTO 23009KT 10SM BKN023 27/22 A2993 RMK AO2 T02720216
KOSA 151555Z AUTO 24009KT 10SM BKN021 27/22 A2993 RMK AO2 T02700216
KOSA 151535Z AUTO 25008KT 10SM SCT019 27/22 A2993 RMK AO2 T02690216
KOSA 151515Z AUTO 21012KT 10SM BKN015 26/22 A2992 RMK AO2 T02600218
KOSA 151455Z AUTO 21006KT 10SM OVC012 25/23 A2992 RMK AO2 T02510227
KOSA 151435Z AUTO 21009KT 10SM OVC012 24/22 A2992 RMK AO2 T02430224
KOSA 151415Z AUTO 21007KT 10SM OVC014 24/23 A2991 RMK AO2 T02380225
KOSA 151355Z AUTO 20006KT 10SM SCT014 BKN021 BKN028 24/23 A2991 RMK AO2 T02380228
KOSA 151335Z AUTO 19004KT 10SM SCT012 BKN019 OVC028 23/22 A2991 RMK AO2 T02310223
KOSA 151315Z AUTO 22004KT 7SM OVC014 23/22 A2990 RMK AO2 T02300223
KOSA 151255Z AUTO 22006KT 10SM BKN008 OVC015 23/22 A2990 RMK AO2 T02290222
KOSA 151235Z AUTO 24006KT 10SM OVC008 23/22 A2989 RMK AO2 T02280222
KOSA 151215Z AUTO 20007KT 7SM BR OVC004 22/22 A2988 RMK AO2 T02250223
KOSA 151155Z AUTO 20007KT 7SM BR OVC004 22/22 A2987 RMK AO2 T02220221 10222 20203 70019
KOSA 151135Z AUTO 17007KT 5SM BR OVC004 22/22 A2986 RMK AO2 T02170216
KOSA 151115Z AUTO 14005KT 4SM BR BKN004 BKN011 21/21 A2986 RMK AO2 T02100209
KOSA 151055Z AUTO 13004KT 1/2SM FG BKN002 OVC010 21/20 A2986 RMK AO2 T02060205
KOSA 151035Z AUTO 15003KT 1 3/4SM BR BKN002 BKN006 20/20 A2985 RMK AO2 T02050204
KOSA 151015Z AUTO 14005KT 1 3/4SM BR OVC002 21/21 A2985 RMK AO2 T02060205
KOSA 150955Z AUTO 14005KT 2 1/2SM BR BKN002 21/21 A2985 RMK AO2 T02070206
KOSA 150935Z AUTO 15005KT 2 1/2SM BR CLR 21/21 A2986 RMK AO2 T02080206
KOSA 150915Z AUTO 15005KT 3SM BR CLR 21/21 A2986 RMK AO2 T02070206
KOSA 150855Z AUTO 15005KT 3 1/2SM BR CLR 21/21 A2985 RMK AO2 T02090207
KOSA 150835Z AUTO 15005KT 1 1/2SM BR SCT042 21/21 A2986 RMK AO2 T02070206
KOSA 150815Z AUTO 15004KT 2 1/2SM BR BKN042 21/21 A2986 RMK AO2 T02110210
KOSA 150755Z AUTO 15004KT 2 1/2SM BR BKN042 21/21 A2986 RMK AO2 T02110209
KOSA 150735Z AUTO 15004KT 3 1/2SM BR BKN042 21/21 A2986 RMK AO2 T02140212
KOSA 150715Z AUTO 16005KT 5SM BR BKN044 22/21 A2987 RMK AO2 T02160214
KOSA 150655Z AUTO 17005KT 7SM BR SCT042 22/21 A2987 RMK AO2 T02150214
KOSA 150635Z AUTO 16005KT 3SM BR CLR 21/21 A2987 RMK AO2 T02090208
KOSA 150615Z AUTO 15004KT 5SM BR CLR 21/21 A2987 RMK AO2 T02120210
KOSA 150555Z AUTO 16004KT 7SM BR CLR 21/21 A2987 RMK AO2 T02130211 10240 20210